Etusivu
METAR-TAF:

METAR-TAF

Lentoasemat :

Kapkaupungin kansainvälinen lentoasema

Kapkaupunki, Etelä-Afrikka

Leveyspiiri: 33-59S, Pituuspiiri: 018-36E, korkeus merenpinnasta: 42 m

Tämänhetkinen sää

Tämä raportti tehtiin 44 minuuttia sitten, kello 01.31 UTC
Tuuli 10 kn etelästä
Lämpötila 19°C
Kosteus 83%
Ilmanpaine 1014 hPa
Näkyvyys 10 km tai enemmän
ei pilviä alle 1500 m:ssä eikä cumulonimbus-pilviä

METAR: FACT 110131Z 19010KT CAVOK 19/16 Q1014 NOSIG

Aika: 04:15 (02:15 UTC)

Sääennuste

Tämä raportti tehtiin 4 tuntia ja 15 minuuttia sitten, kello 22.00 UTC
Ennuste voimassa 11. päivästä klo 00 UTC - 12. päivään klo 06 UTC
Tuuli 8 kn etelästä
Näkyvyys 10 km tai enemmän
ei pilviä alle 1500 m:ssä eikä cumulonimbus-pilviä
From 11. päivästä klo 2300 UTC
Tuuli 8 kn pohjoisen/luoteesta
Näkyvyys 10 km tai enemmän
Hajanaisia pilviä 3000 ft:n korkeudessa

TAF: FACT 102200Z 1100/1206 17008KT CAVOK FM112300 34008KT 9999 SCT030 TX28/1112Z TN13/1204Z

Säähavainnot ja -ennusteet yli 4000 lentoasemalta (METAR- ja TAF-raportit).

Käytössä olevat sääasemat on merkitty karttaan keltaisilla ja punaisilla pisteillä.

Aseta hiiri pisteen päälle nähdäksesi sääaseman nimen.

Klikkaa sitten nähdäksesi säähavainnot ja -ennusteet.

Kartan vaihtaminen: klikkaa mustalla rastilla varustettuja vihreitä pisteitä, niin voit zoomata sisään; viivalla varustettua vihreää pistettä, niin voit zoomata ulos tai vihreitä nuolia, niin pääset viereisille kartoille.


METAR-TAF: